createdAt,value
2023-05-19T00:01:37.783Z,100.00
2023-05-19T00:04:07.959Z,100.00
2023-05-19T00:06:37.159Z,100.00
2023-05-19T00:09:09.524Z,100.00
2023-05-19T00:11:39.769Z,100.00
2023-05-19T00:14:10.591Z,100.00
2023-05-19T00:16:39.688Z,100.00
2023-05-19T00:19:10.360Z,100.00
2023-05-19T00:21:40.352Z,100.00
2023-05-19T00:24:10.419Z,100.00
2023-05-19T00:26:39.070Z,100.00
2023-05-19T00:29:08.555Z,100.00
2023-05-19T00:31:37.110Z,100.00
2023-05-19T00:34:05.696Z,100.00
2023-05-19T00:36:34.327Z,100.00
2023-05-19T00:39:02.976Z,100.00
2023-05-19T00:41:33.113Z,100.00
2023-05-19T00:44:01.737Z,100.00
2023-05-19T00:46:30.909Z,100.00
2023-05-19T00:48:59.763Z,100.00
2023-05-19T00:51:29.804Z,100.00
2023-05-19T00:53:59.254Z,100.00
2023-05-19T00:56:28.320Z,100.00
2023-05-19T00:58:59.643Z,100.00
2023-05-19T01:01:28.837Z,100.00
2023-05-19T01:04:01.430Z,100.00
2023-05-19T01:06:30.273Z,100.00
2023-05-19T01:08:58.870Z,100.00
2023-05-19T01:11:27.369Z,100.00
2023-05-19T01:13:56.603Z,100.00
2023-05-19T01:16:32.573Z,100.00
2023-05-19T01:19:10.899Z,100.00
2023-05-19T01:22:08.082Z,100.00
2023-05-19T01:25:10.445Z,100.00
2023-05-19T01:28:24.069Z,100.00
2023-05-19T01:30:55.939Z,100.00
2023-05-19T01:33:26.073Z,100.00
2023-05-19T01:35:56.540Z,100.00
2023-05-19T01:38:28.104Z,100.00
2023-05-19T01:40:58.679Z,100.00
2023-05-19T01:43:28.767Z,100.00
2023-05-19T01:45:59.667Z,100.00
2023-05-19T01:48:28.597Z,100.00
2023-05-19T01:50:59.831Z,100.00
2023-05-19T01:53:29.707Z,100.00
2023-05-19T01:55:58.833Z,100.00
2023-05-19T01:58:38.994Z,100.00
2023-05-19T02:01:17.962Z,100.00
2023-05-19T02:04:04.392Z,100.00
2023-05-19T02:06:42.900Z,100.00
2023-05-19T02:09:19.877Z,100.00
2023-05-19T02:11:55.809Z,100.00
2023-05-19T02:14:30.920Z,100.00
2023-05-19T02:17:03.281Z,100.00
2023-05-19T02:19:34.170Z,100.00
2023-05-19T02:22:02.879Z,100.00
2023-05-19T02:24:31.658Z,100.00
2023-05-19T02:27:03.847Z,100.00
2023-05-19T02:29:32.435Z,100.00
2023-05-19T02:32:03.477Z,100.00
2023-05-19T02:34:32.167Z,100.00
2023-05-19T02:37:03.382Z,100.00
2023-05-19T02:39:35.353Z,100.00
2023-05-19T02:42:04.166Z,100.00
2023-05-19T02:44:32.734Z,100.00
2023-05-19T02:47:01.738Z,100.00
2023-05-19T02:49:35.814Z,100.00
2023-05-19T02:52:04.682Z,100.00
2023-05-19T02:54:34.320Z,100.00
2023-05-19T02:57:03.136Z,100.00
2023-05-19T02:59:32.259Z,100.00
2023-05-19T03:02:02.740Z,100.00
2023-05-19T03:04:42.084Z,100.00
2023-05-19T03:07:13.439Z,100.00
2023-05-19T03:09:42.402Z,100.00
2023-05-19T03:12:14.053Z,100.00
2023-05-19T03:14:42.625Z,100.00
2023-05-19T03:17:11.306Z,100.00
2023-05-19T03:19:41.477Z,100.00
2023-05-19T03:22:10.105Z,100.00
2023-05-19T03:24:39.552Z,100.00
2023-05-19T03:27:09.117Z,100.00
2023-05-19T03:29:38.751Z,100.00
2023-05-19T03:32:07.767Z,100.00
2023-05-19T03:34:37.952Z,100.00
2023-05-19T03:37:07.925Z,100.00
2023-05-19T03:39:38.797Z,100.00
2023-05-19T03:42:07.797Z,100.00
2023-05-19T03:44:37.545Z,100.00
2023-05-19T03:47:06.821Z,100.00
2023-05-19T03:49:54.120Z,100.00
2023-05-19T03:52:45.586Z,100.00
2023-05-19T03:55:25.664Z,100.00
2023-05-19T03:57:54.233Z,100.00
2023-05-19T04:00:23.118Z,100.00
2023-05-19T04:02:52.709Z,100.00
2023-05-19T04:05:21.284Z,100.00
2023-05-19T04:07:51.325Z,100.00
2023-05-19T04:10:20.533Z,100.00
2023-05-19T04:12:50.429Z,100.00
2023-05-19T04:15:19.192Z,100.00
2023-05-19T04:17:48.011Z,100.00
2023-05-19T04:20:16.530Z,100.00
2023-05-19T04:22:45.170Z,100.00
2023-05-19T04:25:15.217Z,100.00
2023-05-19T04:27:43.901Z,100.00
2023-05-19T04:30:18.528Z,100.00
2023-05-19T04:32:47.709Z,100.00
2023-05-19T04:35:17.662Z,100.00
2023-05-19T04:37:46.941Z,100.00
2023-05-19T04:40:18.246Z,100.00
2023-05-19T04:42:46.881Z,100.00
2023-05-19T04:45:15.656Z,100.00
2023-05-19T04:47:49.110Z,100.00
2023-05-19T04:50:17.623Z,100.00
2023-05-19T04:52:46.552Z,100.00
2023-05-19T04:55:17.202Z,100.00
2023-05-19T04:57:48.102Z,100.00
2023-05-19T05:00:17.390Z,100.00
2023-05-19T05:03:00.001Z,100.00
2023-05-19T05:05:31.447Z,100.00
2023-05-19T05:08:00.229Z,100.00
2023-05-19T05:10:32.594Z,100.00
2023-05-19T05:13:03.545Z,100.00
2023-05-19T05:15:32.739Z,100.00
2023-05-19T05:18:04.123Z,100.00
2023-05-19T05:20:33.889Z,100.00
2023-05-19T05:23:07.140Z,100.00
2023-05-19T05:25:37.138Z,100.00
2023-05-19T05:28:07.927Z,100.00
2023-05-19T05:30:44.187Z,100.00
2023-05-19T05:33:13.503Z,100.00
2023-05-19T05:35:44.393Z,100.00
2023-05-19T05:38:24.083Z,100.00
2023-05-19T05:40:53.098Z,100.00
2023-05-19T05:43:23.950Z,100.00
2023-05-19T05:46:00.051Z,100.00
2023-05-19T05:48:29.655Z,100.00
2023-05-19T05:51:00.623Z,100.00
2023-05-19T05:53:37.183Z,100.00
2023-05-19T05:56:08.412Z,100.00
2023-05-19T05:58:46.858Z,100.00
2023-05-19T06:01:18.809Z,100.00
2023-05-19T06:03:47.846Z,100.00
2023-05-19T06:06:22.178Z,100.00
2023-05-19T06:08:51.835Z,100.00
2023-05-19T06:11:21.564Z,100.00
2023-05-19T06:13:52.395Z,100.00
2023-05-19T06:16:41.418Z,100.00
2023-05-19T06:19:11.216Z,100.00
2023-05-19T06:21:40.435Z,100.00
2023-05-19T06:24:09.441Z,100.00
2023-05-19T06:26:38.438Z,100.00
2023-05-19T06:29:09.013Z,100.00
2023-05-19T06:31:38.544Z,100.00
2023-05-19T06:34:12.616Z,100.00
2023-05-19T06:36:41.974Z,100.00
2023-05-19T06:39:11.976Z,100.00
2023-05-19T06:41:44.340Z,100.00
2023-05-19T06:44:26.455Z,100.00
2023-05-19T06:46:54.938Z,100.00
2023-05-19T06:49:24.046Z,100.00
2023-05-19T06:51:52.625Z,100.00
2023-05-19T06:54:21.960Z,100.00
2023-05-19T06:56:50.884Z,100.00
2023-05-19T06:59:21.913Z,100.00
2023-05-19T07:01:52.303Z,100.00
2023-05-19T07:04:20.997Z,100.00
2023-05-19T07:06:50.254Z,100.00
2023-05-19T07:09:19.217Z,100.00
2023-05-19T07:11:48.559Z,100.00
2023-05-19T07:14:18.059Z,100.00
2023-05-19T07:16:46.741Z,100.00
2023-05-19T07:19:16.819Z,100.00
2023-05-19T07:21:48.115Z,100.00
2023-05-19T07:24:17.318Z,100.00
2023-05-19T07:26:45.789Z,100.00
2023-05-19T07:29:15.815Z,100.00
2023-05-19T07:31:44.348Z,100.00
2023-05-19T07:34:12.884Z,100.00
2023-05-19T07:36:42.772Z,100.00
2023-05-19T07:39:12.059Z,100.00
2023-05-19T07:41:40.651Z,100.00
2023-05-19T07:44:10.657Z,100.00
2023-05-19T07:46:39.706Z,100.00
2023-05-19T07:49:08.836Z,100.00
2023-05-19T07:51:37.953Z,100.00
2023-05-19T07:54:08.476Z,100.00
2023-05-19T07:56:37.093Z,100.00
2023-05-19T07:59:06.008Z,100.00
2023-05-19T08:01:34.579Z,100.00
2023-05-19T08:04:03.496Z,100.00
2023-05-19T08:06:32.179Z,100.00
2023-05-19T08:09:00.764Z,100.00
2023-05-19T08:11:31.064Z,100.00
2023-05-19T08:13:59.513Z,100.00
2023-05-19T08:16:31.419Z,100.00
2023-05-19T08:19:02.607Z,100.00
2023-05-19T08:21:34.503Z,100.00
2023-05-19T08:24:03.653Z,100.00
2023-05-19T08:26:35.750Z,100.00
2023-05-19T08:29:05.678Z,100.00
2023-05-19T08:31:34.828Z,100.00
2023-05-19T08:34:04.056Z,100.00
2023-05-19T08:36:33.820Z,100.00
2023-05-19T08:39:02.721Z,100.00
2023-05-19T08:41:31.373Z,100.00
2023-05-19T08:44:01.218Z,100.00
2023-05-19T08:46:30.487Z,100.00
2023-05-19T08:49:06.567Z,100.00
2023-05-19T08:51:43.966Z,100.00
2023-05-19T08:54:16.902Z,100.00
2023-05-19T08:56:46.582Z,100.00
2023-05-19T08:59:18.374Z,100.00
2023-05-19T09:01:47.578Z,100.00
2023-05-19T09:04:18.241Z,100.00
2023-05-19T09:06:46.877Z,100.00
2023-05-19T09:09:15.703Z,100.00
2023-05-19T09:11:47.294Z,100.00
2023-05-19T09:14:17.880Z,100.00
2023-05-19T09:16:51.026Z,100.00
2023-05-19T09:19:22.920Z,100.00
2023-05-19T09:22:01.099Z,100.00
2023-05-19T09:24:29.878Z,100.00
2023-05-19T09:27:00.216Z,100.00
2023-05-19T09:29:32.017Z,100.00
2023-05-19T09:32:04.317Z,100.00
2023-05-19T09:34:36.165Z,100.00
2023-05-19T09:37:05.235Z,100.00
2023-05-19T09:39:33.921Z,100.00
2023-05-19T09:42:06.841Z,100.00
2023-05-19T09:44:36.738Z,100.00
2023-05-19T09:47:05.695Z,100.00
2023-05-19T09:49:34.107Z,100.00
2023-05-19T09:52:04.921Z,100.00
2023-05-19T09:54:35.584Z,100.00
2023-05-19T09:57:08.540Z,100.00
2023-05-19T09:59:40.005Z,100.00
2023-05-19T10:02:16.486Z,100.00
2023-05-19T10:04:47.815Z,100.00
2023-05-19T10:07:19.715Z,100.00
2023-05-19T10:09:51.488Z,100.00
2023-05-19T10:12:21.651Z,100.00
2023-05-19T10:14:54.914Z,100.00
2023-05-19T10:17:26.366Z,100.00
2023-05-19T10:19:56.034Z,100.00
2023-05-19T10:22:26.236Z,100.00
2023-05-19T10:24:56.070Z,100.00
2023-05-19T10:27:30.538Z,100.00
2023-05-19T10:30:11.479Z,100.00
2023-05-19T10:32:44.062Z,100.00
2023-05-19T10:35:44.138Z,100.00
2023-05-19T10:38:23.274Z,100.00
2023-05-19T10:41:03.341Z,100.00
2023-05-19T10:43:48.701Z,100.00
2023-05-19T10:46:19.536Z,100.00
2023-05-19T10:48:48.661Z,100.00
2023-05-19T10:51:17.963Z,100.00
2023-05-19T10:53:47.963Z,100.00
2023-05-19T10:56:31.093Z,100.00
2023-05-19T10:59:00.511Z,100.00
2023-05-19T11:01:34.827Z,100.00
2023-05-19T11:04:12.387Z,100.00
2023-05-19T11:06:41.912Z,100.00
2023-05-19T11:09:15.336Z,100.00
2023-05-19T11:11:47.533Z,100.00
2023-05-19T11:14:19.078Z,100.00
2023-05-19T11:16:50.695Z,100.00
2023-05-19T11:19:21.393Z,100.00
2023-05-19T11:21:52.634Z,100.00
2023-05-19T11:24:37.844Z,100.00
2023-05-19T11:27:23.101Z,100.00
2023-05-19T11:29:52.744Z,100.00
2023-05-19T11:32:23.655Z,100.00
2023-05-19T11:34:52.492Z,100.00
2023-05-19T11:37:21.477Z,100.00
2023-05-19T11:39:54.600Z,100.00
2023-05-19T11:42:29.226Z,100.00
2023-05-19T11:44:57.838Z,100.00
2023-05-19T11:47:28.580Z,100.00
2023-05-19T11:49:57.617Z,100.00
2023-05-19T11:52:27.477Z,100.00
2023-05-19T11:54:59.803Z,100.00
2023-05-19T11:57:28.420Z,100.00
2023-05-19T11:59:57.639Z,100.00
2023-05-19T12:02:28.551Z,100.00
2023-05-19T12:04:57.211Z,100.00
2023-05-19T12:07:26.548Z,100.00
2023-05-19T12:09:56.396Z,100.00
2023-05-19T12:12:25.083Z,100.00
2023-05-19T12:14:54.577Z,100.00
2023-05-19T12:17:24.374Z,100.00
2023-05-19T12:19:55.535Z,100.00
2023-05-19T12:22:26.787Z,100.00
2023-05-19T12:24:55.966Z,100.00
2023-05-19T12:27:26.336Z,100.00
2023-05-19T12:29:57.169Z,100.00
2023-05-19T12:32:26.950Z,100.00
2023-05-19T12:34:57.609Z,96.98
2023-05-19T12:37:30.195Z,92.94
2023-05-19T12:39:59.228Z,97.92
2023-05-19T12:42:31.261Z,100.00
2023-05-19T12:45:03.086Z,100.00
2023-05-19T12:47:34.871Z,100.00
2023-05-19T12:50:07.994Z,100.00
2023-05-19T12:52:43.907Z,100.00
2023-05-19T12:55:12.892Z,100.00
2023-05-19T12:57:43.111Z,98.79
2023-05-19T13:00:17.762Z,100.00
2023-05-19T13:02:57.586Z,100.00
2023-05-19T13:05:28.741Z,100.00
2023-05-19T13:08:00.057Z,100.00
2023-05-19T13:10:29.764Z,100.00
2023-05-19T13:13:00.309Z,100.00
2023-05-19T13:15:31.801Z,100.00
2023-05-19T13:18:02.556Z,100.00
2023-05-19T13:20:34.615Z,100.00
2023-05-19T13:23:03.754Z,100.00
2023-05-19T13:25:36.568Z,100.00
2023-05-19T13:28:06.144Z,100.00
2023-05-19T13:30:36.060Z,99.43
2023-05-19T13:33:05.198Z,100.00
2023-05-19T13:35:37.570Z,100.00
2023-05-19T13:38:06.960Z,100.00
2023-05-19T13:40:36.761Z,100.00
2023-05-19T13:43:06.154Z,100.00
2023-05-19T13:45:35.018Z,99.95
2023-05-19T13:48:03.856Z,99.55
2023-05-19T13:50:34.218Z,99.73
2023-05-19T13:53:04.701Z,99.21
2023-05-19T13:55:36.254Z,98.38
2023-05-19T13:58:04.880Z,97.98
2023-05-19T14:00:35.698Z,97.82
2023-05-19T14:03:06.933Z,96.61
2023-05-19T14:05:35.818Z,97.71
2023-05-19T14:08:06.793Z,96.07
2023-05-19T14:10:36.150Z,96.71
2023-05-19T14:13:29.951Z,95.98
2023-05-19T14:15:53.600Z,95.99
2023-05-19T14:18:22.569Z,96.96
2023-05-19T14:20:51.095Z,94.56
2023-05-19T14:23:21.769Z,95.69
2023-05-19T14:25:50.397Z,94.09
2023-05-19T14:28:20.317Z,95.21
2023-05-19T14:30:49.561Z,94.69
2023-05-19T14:33:19.416Z,89.05
2023-05-19T14:35:48.422Z,85.39
2023-05-19T14:38:16.934Z,87.75
2023-05-19T14:40:48.476Z,89.56
2023-05-19T14:43:16.975Z,90.72
2023-05-19T14:45:46.920Z,89.83
2023-05-19T14:48:15.847Z,89.90
2023-05-19T14:50:48.327Z,77.85
2023-05-19T14:53:20.594Z,79.64
2023-05-19T14:55:51.308Z,85.40
2023-05-19T14:58:27.457Z,86.89
2023-05-19T15:00:59.157Z,86.63
2023-05-19T15:03:27.917Z,87.67
2023-05-19T15:05:56.581Z,86.77
2023-05-19T15:08:25.160Z,80.58
2023-05-19T15:10:55.102Z,79.21
2023-05-19T15:13:23.697Z,83.37
2023-05-19T15:16:08.253Z,83.36
2023-05-19T15:18:44.437Z,83.50
2023-05-19T15:21:13.316Z,83.90
2023-05-19T15:23:42.153Z,83.65
2023-05-19T15:26:12.213Z,80.42
2023-05-19T15:28:40.784Z,81.28
2023-05-19T15:31:12.282Z,80.48
2023-05-19T15:33:41.120Z,80.96
2023-05-19T15:36:11.193Z,81.81
2023-05-19T15:38:39.896Z,81.58
2023-05-19T15:41:09.519Z,81.60
2023-05-19T15:43:41.409Z,79.24
2023-05-19T15:46:11.320Z,78.95
2023-05-19T15:48:39.979Z,75.07
2023-05-19T15:51:08.999Z,75.94
2023-05-19T15:53:37.970Z,76.48
2023-05-19T15:56:06.968Z,77.29
2023-05-19T15:58:35.906Z,77.82
2023-05-19T16:01:06.499Z,78.12
2023-05-19T16:03:35.698Z,79.42
2023-05-19T16:06:05.001Z,78.41
2023-05-19T16:08:33.644Z,78.41
2023-05-19T16:11:02.218Z,78.09
2023-05-19T16:13:33.559Z,78.79
2023-05-19T16:16:02.288Z,78.63
2023-05-19T16:18:32.416Z,78.64
2023-05-19T16:21:01.405Z,78.30
2023-05-19T16:23:29.982Z,75.17
2023-05-19T16:25:58.593Z,75.64
2023-05-19T16:28:28.005Z,74.50
2023-05-19T16:30:58.740Z,71.76
2023-05-19T16:33:27.709Z,70.97
2023-05-19T16:35:59.860Z,67.59
2023-05-19T16:38:28.446Z,68.16
2023-05-19T16:40:57.021Z,70.24
2023-05-19T16:43:26.341Z,69.23
2023-05-19T16:45:54.958Z,71.75
2023-05-19T16:48:23.594Z,71.79
2023-05-19T16:50:52.224Z,71.74
2023-05-19T16:53:22.580Z,67.54
2023-05-19T16:55:51.408Z,68.51
2023-05-19T16:58:20.035Z,68.02
2023-05-19T17:00:52.586Z,68.35
2023-05-19T17:03:21.511Z,67.35
2023-05-19T17:05:50.426Z,65.58
2023-05-19T17:08:19.048Z,63.88
2023-05-19T17:10:50.086Z,65.15
2023-05-19T17:13:18.752Z,66.35
2023-05-19T17:15:52.503Z,65.91
2023-05-19T17:18:21.202Z,66.45
2023-05-19T17:20:49.778Z,64.04
2023-05-19T17:23:18.401Z,61.25
2023-05-19T17:25:47.158Z,61.75
2023-05-19T17:28:17.102Z,62.76
2023-05-19T17:30:45.697Z,63.09
2023-05-19T17:33:14.347Z,64.36
2023-05-19T17:35:42.938Z,65.38
2023-05-19T17:38:11.432Z,65.50
2023-05-19T17:40:41.913Z,65.33
2023-05-19T17:43:10.846Z,64.82
2023-05-19T17:45:40.801Z,63.36
2023-05-19T17:48:09.490Z,63.94
2023-05-19T17:50:38.030Z,63.46
2023-05-19T17:53:07.055Z,63.92
2023-05-19T17:55:39.584Z,64.46
2023-05-19T17:58:08.881Z,63.27
2023-05-19T18:00:38.127Z,63.33
2023-05-19T18:03:09.231Z,63.41
2023-05-19T18:05:40.039Z,62.95
2023-05-19T18:08:09.572Z,62.61
2023-05-19T18:10:39.971Z,63.51
2023-05-19T18:13:10.548Z,63.73
2023-05-19T18:15:39.524Z,64.48
2023-05-19T18:20:41.217Z,64.42
2023-05-19T18:23:09.920Z,64.50
2023-05-19T18:25:38.570Z,63.30
2023-05-19T18:28:07.110Z,63.70
2023-05-19T18:30:36.169Z,63.58
2023-05-19T18:33:05.896Z,64.03
2023-05-19T18:35:37.799Z,63.13
2023-05-19T18:38:06.868Z,63.65
2023-05-19T18:40:36.701Z,64.21
2023-05-19T18:43:05.806Z,64.27
2023-05-19T18:45:34.636Z,64.27
2023-05-19T18:48:03.930Z,64.32
2023-05-19T18:50:33.274Z,64.53
2023-05-19T18:53:03.723Z,64.56
2023-05-19T18:55:32.425Z,64.84
2023-05-19T18:58:01.806Z,64.80
2023-05-19T19:00:31.065Z,64.83
2023-05-19T19:03:00.112Z,65.10
2023-05-19T19:05:29.762Z,65.46
2023-05-19T19:07:59.015Z,65.43
2023-05-19T19:10:29.742Z,65.71
2023-05-19T19:12:58.957Z,65.80
2023-05-19T19:15:28.524Z,66.03
2023-05-19T19:17:57.790Z,66.15
2023-05-19T19:20:26.718Z,66.72
2023-05-19T19:22:56.920Z,67.07
2023-05-19T19:25:25.714Z,67.05
2023-05-19T19:27:56.501Z,67.10
2023-05-19T19:30:25.692Z,67.42
2023-05-19T19:32:57.012Z,67.67
2023-05-19T19:35:26.441Z,67.76
2023-05-19T19:37:55.465Z,67.87
2023-05-19T19:40:26.150Z,68.25
2023-05-19T19:42:56.774Z,68.28
2023-05-19T19:45:25.809Z,68.55
2023-05-19T19:47:54.994Z,68.61
2023-05-19T19:50:24.297Z,68.96
2023-05-19T19:52:53.297Z,69.17
2023-05-19T19:55:22.402Z,69.65
2023-05-19T19:57:51.316Z,69.95
2023-05-19T20:00:24.937Z,70.07
2023-05-19T20:03:03.753Z,70.40
2023-05-19T20:05:34.736Z,70.41
2023-05-19T20:08:03.430Z,70.59
2023-05-19T20:10:33.180Z,70.81
2023-05-19T20:13:02.111Z,71.02
2023-05-19T20:15:33.256Z,71.33
2023-05-19T20:18:02.519Z,71.43
2023-05-19T20:20:32.120Z,71.60
2023-05-19T20:23:01.385Z,72.21
2023-05-19T20:25:30.301Z,72.16
2023-05-19T20:27:59.139Z,72.30
2023-05-19T20:30:31.314Z,72.50
2023-05-19T20:33:00.537Z,72.93
2023-05-19T20:35:29.618Z,73.04
2023-05-19T20:37:58.465Z,73.39
2023-05-19T20:40:27.332Z,73.77
2023-05-19T20:42:56.434Z,73.98
2023-05-19T20:45:25.956Z,74.15
2023-05-19T20:47:57.120Z,74.67
2023-05-19T20:50:26.366Z,74.86
2023-05-19T20:52:55.496Z,74.97
2023-05-19T20:55:24.285Z,75.45
2023-05-19T20:57:53.172Z,75.61
2023-05-19T21:00:22.010Z,75.97
2023-05-19T21:02:50.850Z,76.22
2023-05-19T21:05:21.052Z,76.47
2023-05-19T21:07:50.879Z,76.65
2023-05-19T21:10:19.681Z,77.25
2023-05-19T21:12:48.667Z,77.21
2023-05-19T21:15:17.437Z,77.42
2023-05-19T21:17:46.611Z,77.84
2023-05-19T21:20:15.258Z,78.31
2023-05-19T21:22:45.379Z,78.63
2023-05-19T21:25:14.431Z,78.73
2023-05-19T21:27:46.267Z,79.14
2023-05-19T21:30:15.563Z,79.65
2023-05-19T21:32:44.384Z,79.78
2023-05-19T21:35:13.179Z,80.13
2023-05-19T21:37:41.813Z,80.53
2023-05-19T21:40:12.739Z,80.94
2023-05-19T21:42:41.328Z,81.01
2023-05-19T21:45:10.859Z,81.19
2023-05-19T21:47:42.019Z,81.60
2023-05-19T21:50:15.665Z,81.68
2023-05-19T21:52:44.461Z,81.81
2023-05-19T21:55:14.557Z,82.21
2023-05-19T21:57:43.258Z,82.75
2023-05-19T22:00:13.556Z,82.83
2023-05-19T22:02:42.236Z,83.24
2023-05-19T22:05:11.725Z,83.63
2023-05-19T22:07:40.605Z,83.81
2023-05-19T22:10:10.121Z,84.09
2023-05-19T22:12:40.208Z,84.19
2023-05-19T22:15:09.969Z,84.28
2023-05-19T22:17:38.762Z,84.59
2023-05-19T22:20:08.704Z,84.74
2023-05-19T22:22:40.023Z,85.00
2023-05-19T22:25:09.652Z,84.94
2023-05-19T22:27:38.448Z,85.25
2023-05-19T22:30:12.581Z,85.79
2023-05-19T22:32:41.174Z,85.98
2023-05-19T22:35:12.525Z,86.21
2023-05-19T22:37:41.204Z,86.56
2023-05-19T22:40:10.585Z,87.06
2023-05-19T22:42:39.453Z,86.98
2023-05-19T22:45:10.849Z,87.73
2023-05-19T22:47:40.130Z,87.81
2023-05-19T22:50:10.471Z,88.05
2023-05-19T22:52:39.474Z,88.52
2023-05-19T22:55:09.110Z,88.87
2023-05-19T22:57:37.861Z,88.98
2023-05-19T23:00:08.400Z,89.17
2023-05-19T23:02:38.510Z,89.49
2023-05-19T23:05:07.996Z,89.66
2023-05-19T23:07:36.540Z,89.92
2023-05-19T23:10:06.185Z,90.37
2023-05-19T23:12:34.889Z,90.23
2023-05-19T23:15:03.806Z,90.66
2023-05-19T23:17:35.281Z,91.23
2023-05-19T23:20:05.855Z,91.42
2023-05-19T23:22:34.380Z,91.47
2023-05-19T23:25:07.416Z,91.89
2023-05-19T23:27:36.442Z,92.37
2023-05-19T23:30:05.886Z,92.16
2023-05-19T23:32:34.555Z,92.63
2023-05-19T23:35:12.613Z,93.65
2023-05-19T23:37:41.351Z,92.90
2023-05-19T23:40:10.722Z,93.56
2023-05-19T23:42:39.508Z,93.81
2023-05-19T23:45:09.500Z,94.00
2023-05-19T23:47:38.245Z,93.92
2023-05-19T23:50:07.496Z,94.25
2023-05-19T23:52:37.973Z,94.33
2023-05-19T23:55:07.747Z,94.51
2023-05-19T23:57:36.430Z,94.93
